Terminal Aerodrome Forecast
Issued by NWS

Home | Current Version | Previous Version | Text Only | Print | Product List | Glossary On
Versions: 1 2 3 4 5 6 7 8 9 10 11 12 13 14 15 16 17 18 19 20
445
FTUS46 KEKA 301743
TAFCEC
TAF
KCEC 301743Z 3018/0118 17006KT P6SM FEW025
     FM302100 20008KT P6SM FEW050 BKN100
     FM010000 25008KT P6SM FEW025 OVC050
     FM010300 16005KT P6SM -SHRA OVC025
     FM010600 12005KT 3SM -RA BR FEW010 OVC025
     FM011200 13008KT 5SM BR OVC025=

USA.gov is the U.S. government's official web portal to all federal, state and local government web resources and services.